Time;durP1;ratioP1;P1;durP2;ratioP2;P2;SDS_P1;SDS_P2;PMS_P1;PMS_P2;Temp;Humidity;BMP_temperature;BMP_pressure;BME280_temperature;BME280_humidity;BME280_pressure;Samples;Min_cycle;Max_cycle;Signal;HPM_P1;HPM_P2
2023/07/30 00:00:39;;;;;;;4.55;3.35;;;;;;;23.21;46.75;94764.78;5036263;28;20222;-65
2023/07/30 00:03:05;;;;;;;4.40;3.15;;;;;;;23.23;46.72;94760.81;5036117;28;20313;-66
2023/07/30 00:05:30;;;;;;;5.80;2.80;;;;;;;23.21;46.26;94757.56;5040820;28;20180;-66
2023/07/30 00:07:56;;;;;;;4.45;3.05;;;;;;;23.19;46.57;94765.00;5034491;28;20214;-66
2023/07/30 00:10:21;;;;;;;4.38;3.03;;;;;;;23.34;46.24;94756.47;5038294;28;20285;-66
2023/07/30 00:12:47;;;;;;;3.70;2.33;;;;;;;23.42;45.98;94760.66;5031234;28;20340;-66
2023/07/30 00:15:13;;;;;;;3.35;2.70;;;;;;;23.44;46.12;94761.22;5043946;28;20248;-67
2023/07/30 00:17:39;;;;;;;5.00;2.75;;;;;;;23.30;46.45;94758.81;5036332;28;20199;-67
2023/07/30 00:20:06;;;;;;;3.85;3.03;;;;;;;23.27;46.24;94759.28;5031041;28;20234;-66
2023/07/30 00:22:32;;;;;;;3.72;2.90;;;;;;;23.18;46.80;94760.72;5027696;28;20226;-67
2023/07/30 00:24:57;;;;;;;3.55;2.60;;;;;;;23.23;46.79;94762.66;5026175;28;20287;-66
2023/07/30 00:27:22;;;;;;;3.80;2.60;;;;;;;23.27;46.64;94761.97;5034561;28;20297;-66
2023/07/30 00:29:48;;;;;;;4.32;2.92;;;;;;;23.33;46.88;94752.16;5014670;28;20183;-67
2023/07/30 00:32:15;;;;;;;4.57;3.30;;;;;;;23.32;46.71;94750.53;5045099;28;20174;-66
2023/07/30 00:34:41;;;;;;;3.40;2.97;;;;;;;23.37;46.50;94747.94;5034207;28;20226;-67
2023/07/30 00:37:06;;;;;;;3.45;2.80;;;;;;;23.26;46.51;94746.94;5034055;28;20392;-67
2023/07/30 00:39:32;;;;;;;3.42;3.10;;;;;;;23.28;46.39;94744.00;5036503;28;20214;-67
2023/07/30 00:41:57;;;;;;;3.03;2.63;;;;;;;23.17;46.57;94742.97;5035795;28;20202;-68
2023/07/30 00:44:23;;;;;;;3.20;2.50;;;;;;;23.24;46.50;94749.03;5043228;28;20709;-67
2023/07/30 00:46:49;;;;;;;3.25;2.80;;;;;;;23.18;46.56;94750.00;5037333;28;20748;-66
2023/07/30 00:49:14;;;;;;;3.20;2.90;;;;;;;23.11;46.71;94741.25;5031692;28;20218;-67
2023/07/30 00:51:41;;;;;;;5.35;2.90;;;;;;;23.07;46.77;94748.16;5032490;28;20244;-66
2023/07/30 00:54:06;;;;;;;3.10;2.90;;;;;;;23.02;46.74;94750.72;5032834;28;20325;-67
2023/07/30 00:56:32;;;;;;;3.83;3.10;;;;;;;22.96;46.81;94744.44;5032764;28;20194;-67
2023/07/30 00:58:58;;;;;;;3.30;2.55;;;;;;;23.04;46.66;94743.22;5030044;28;20238;-66
2023/07/30 01:01:24;;;;;;;3.17;2.67;;;;;;;23.00;46.81;94742.09;5037167;28;20225;-67
2023/07/30 01:03:50;;;;;;;3.70;2.60;;;;;;;23.01;46.71;94746.38;5023142;28;20223;-66
2023/07/30 01:06:15;;;;;;;3.40;2.80;;;;;;;22.94;46.28;94743.00;5032888;28;20265;-66
2023/07/30 01:08:41;;;;;;;5.60;2.53;;;;;;;22.99;46.08;94746.66;5035454;28;20232;-66
2023/07/30 01:11:08;;;;;;;2.92;2.67;;;;;;;22.87;46.12;94749.28;5032110;28;20225;-66
2023/07/30 01:13:35;;;;;;;4.10;2.67;;;;;;;22.84;45.06;94747.09;5035804;28;20298;-66
2023/07/30 01:16:03;;;;;;;3.17;2.58;;;;;;;22.72;44.63;94740.94;5034950;28;20295;-66
2023/07/30 01:18:28;;;;;;;3.22;2.38;;;;;;;22.71;44.71;94746.50;5032624;28;20229;-67
2023/07/30 01:20:57;;;;;;;4.43;3.08;;;;;;;22.78;45.20;94745.34;5034008;28;20217;-66
2023/07/30 01:23:22;;;;;;;2.45;2.25;;;;;;;22.65;45.48;94756.31;5035188;28;20271;-66
2023/07/30 01:26:00;;;;;;;3.53;2.42;;;;;;;22.84;45.92;94754.31;5032028;28;20716;-66
2023/07/30 01:28:27;;;;;;;4.07;2.95;;;;;;;22.56;46.80;94747.81;5037202;28;20217;-67
2023/07/30 01:30:56;;;;;;;3.17;2.80;;;;;;;22.55;47.54;94746.16;5031328;28;20235;-66
2023/07/30 01:33:22;;;;;;;3.25;2.95;;;;;;;22.60;47.07;94742.78;5030202;28;20214;-67
2023/07/30 01:35:49;;;;;;;3.08;2.78;;;;;;;22.62;46.82;94744.19;5013738;28;20249;-67
2023/07/30 01:38:14;;;;;;;3.00;2.70;;;;;;;22.56;46.78;94749.66;5035139;28;20193;-66
2023/07/30 01:40:40;;;;;;;3.40;2.90;;;;;;;22.58;47.42;94745.69;5031246;28;20218;-66
2023/07/30 01:43:07;;;;;;;5.53;3.40;;;;;;;22.45;48.07;94757.47;5036992;28;20222;-66
2023/07/30 01:45:34;;;;;;;4.30;3.20;;;;;;;22.05;49.70;94753.75;5033553;28;20788;-66
2023/07/30 01:47:59;;;;;;;3.65;3.22;;;;;;;22.03;49.59;94759.34;5034944;28;20190;-66
2023/07/30 01:50:25;;;;;;;3.97;3.00;;;;;;;22.06;49.93;94752.72;5031897;28;20181;-65
2023/07/30 01:52:50;;;;;;;3.92;3.15;;;;;;;22.08;49.49;94755.97;5039545;28;20211;-66
2023/07/30 01:55:16;;;;;;;4.32;3.25;;;;;;;22.21;49.43;94750.44;5026501;28;20226;-66
2023/07/30 01:57:41;;;;;;;3.95;3.10;;;;;;;22.13;49.76;94756.94;5038081;28;20225;-65
2023/07/30 02:00:07;;;;;;;3.80;2.92;;;;;;;22.01;49.79;94756.88;5031330;28;20704;-65
2023/07/30 02:02:35;;;;;;;4.00;2.88;;;;;;;21.83;50.70;94751.59;5037877;28;20677;-66
2023/07/30 02:05:00;;;;;;;3.55;3.10;;;;;;;21.91;50.29;94756.63;5019313;28;20222;-66
2023/07/30 02:07:26;;;;;;;3.67;3.08;;;;;;;21.95;50.09;94760.50;5029685;28;20236;-66
2023/07/30 02:09:52;;;;;;;4.07;3.30;;;;;;;21.68;50.84;94764.56;5031078;28;20279;-66
2023/07/30 02:12:18;;;;;;;3.28;2.80;;;;;;;21.60;51.08;94760.38;5030378;28;20229;-66
2023/07/30 02:14:43;;;;;;;3.97;3.03;;;;;;;21.67;50.93;94760.28;5039062;28;20178;-66
2023/07/30 02:17:09;;;;;;;4.40;3.15;;;;;;;21.78;50.38;94763.00;5030231;28;20310;-66
2023/07/30 02:19:34;;;;;;;3.85;2.65;;;;;;;21.70;50.88;94765.16;5034156;28;20222;-66
2023/07/30 02:21:59;;;;;;;3.47;2.92;;;;;;;21.54;51.22;94767.44;5029075;28;20275;-66
2023/07/30 02:24:25;;;;;;;3.45;3.00;;;;;;;21.65;50.83;94767.69;5032285;28;20217;-66
2023/07/30 02:26:50;;;;;;;3.72;3.33;;;;;;;21.64;51.00;94772.25;5033434;28;20281;-66
2023/07/30 02:29:15;;;;;;;3.45;2.78;;;;;;;21.40;51.66;94770.50;5032005;28;20231;-66
2023/07/30 02:31:41;;;;;;;3.10;2.80;;;;;;;21.56;51.11;94778.72;5035220;28;20220;-66
2023/07/30 02:34:07;;;;;;;3.55;3.00;;;;;;;21.80;50.51;94768.13;5034382;28;20574;-66
2023/07/30 02:36:33;;;;;;;3.20;2.90;;;;;;;21.75;50.57;94776.81;5028553;28;20233;-66
2023/07/30 02:38:58;;;;;;;3.33;2.85;;;;;;;21.83;50.49;94773.00;5035125;28;20594;-67
2023/07/30 02:41:24;;;;;;;3.50;2.95;;;;;;;21.87;50.20;94768.84;5035387;28;20206;-66
2023/07/30 02:43:49;;;;;;;3.53;2.97;;;;;;;21.85;50.27;94780.81;5032098;28;20275;-67
2023/07/30 02:46:14;;;;;;;5.30;3.03;;;;;;;21.83;50.17;94777.56;5030613;28;20249;-66
2023/07/30 02:48:40;;;;;;;3.25;2.67;;;;;;;21.80;50.03;94781.50;5031694;28;20213;-66
2023/07/30 02:51:05;;;;;;;6.05;2.88;;;;;;;21.81;49.60;94780.44;5034212;28;20218;-66
2023/07/30 02:53:31;;;;;;;3.10;2.80;;;;;;;21.74;49.19;94774.38;5034316;28;20281;-66
2023/07/30 02:55:56;;;;;;;4.43;2.70;;;;;;;21.84;49.20;94776.50;5032232;28;20267;-66
2023/07/30 02:58:21;;;;;;;3.30;2.45;;;;;;;21.82;49.00;94774.06;5028060;28;20234;-66
2023/07/30 03:00:47;;;;;;;2.78;2.53;;;;;;;21.88;48.97;94785.72;5035819;28;20222;-67
2023/07/30 03:03:12;;;;;;;2.65;2.42;;;;;;;21.82;48.62;94779.41;5029698;28;20222;-67
2023/07/30 03:05:42;;;;;;;3.20;3.00;;;;;;;21.72;48.80;94779.94;5027467;28;20249;-67
2023/07/30 03:08:07;;;;;;;3.08;2.78;;;;;;;21.78;48.24;94784.41;5033105;28;20222;-66
2023/07/30 03:10:33;;;;;;;3.92;3.08;;;;;;;21.70;48.25;94781.22;5023310;28;20372;-67
2023/07/30 03:12:58;;;;;;;4.18;2.80;;;;;;;21.72;47.98;94790.66;5033973;28;20230;-67
2023/07/30 03:15:23;;;;;;;4.50;2.65;;;;;;;21.74;47.48;94787.75;5035554;28;20218;-66
2023/07/30 03:17:49;;;;;;;2.90;2.63;;;;;;;21.71;47.37;94791.72;5036636;28;20193;-67
2023/07/30 03:20:14;;;;;;;2.95;2.63;;;;;;;21.72;47.69;94789.84;5032040;28;20331;-67
2023/07/30 03:22:40;;;;;;;3.38;2.80;;;;;;;21.70;47.80;94783.91;5035062;28;20227;-66
2023/07/30 03:25:05;;;;;;;3.42;2.58;;;;;;;21.72;47.51;94784.50;5038901;28;20230;-66
2023/07/30 03:27:31;;;;;;;4.78;2.90;;;;;;;21.67;47.61;94779.00;5034811;28;20229;-66
2023/07/30 03:29:56;;;;;;;2.63;2.42;;;;;;;21.70;47.49;94776.69;5032103;28;20556;-66
2023/07/30 03:32:22;;;;;;;3.33;3.03;;;;;;;21.65;47.95;94778.41;5036374;28;20178;-65
2023/07/30 03:34:47;;;;;;;3.05;2.75;;;;;;;21.63;47.82;94784.00;5034196;28;20217;-66
2023/07/30 03:37:12;;;;;;;5.13;3.00;;;;;;;21.58;48.09;94786.53;5036410;28;20226;-66
2023/07/30 03:39:38;;;;;;;3.50;2.67;;;;;;;21.62;47.58;94773.50;5034984;28;20257;-66
2023/07/30 03:42:03;;;;;;;4.25;3.05;;;;;;;21.65;47.78;94786.44;5040514;28;20210;-65
2023/07/30 03:44:29;;;;;;;3.10;2.80;;;;;;;21.64;48.05;94787.47;5035673;28;20197;-66
2023/07/30 03:46:54;;;;;;;4.28;2.72;;;;;;;21.54;48.00;94771.97;5036114;28;20230;-66
2023/07/30 03:49:20;;;;;;;3.00;2.45;;;;;;;21.60;47.86;94781.78;5012955;28;20237;-65
2023/07/30 03:51:45;;;;;;;4.70;2.65;;;;;;;21.66;47.65;94783.53;5019907;28;20233;-66
2023/07/30 03:54:11;;;;;;;3.30;2.33;;;;;;;21.58;47.56;94784.66;5036880;28;20376;-66
2023/07/30 03:56:36;;;;;;;3.53;2.63;;;;;;;21.65;47.27;94789.09;5041594;28;20236;-67
2023/07/30 03:59:01;;;;;;;3.38;3.00;;;;;;;21.67;47.43;94792.38;5022337;28;20305;-67
2023/07/30 04:01:28;;;;;;;2.67;2.42;;;;;;;21.64;47.76;94792.84;5035278;28;20582;-66
2023/07/30 04:03:54;;;;;;;4.43;2.90;;;;;;;21.66;47.76;94796.09;5030045;28;20223;-66
2023/07/30 04:06:19;;;;;;;5.85;3.00;;;;;;;21.69;47.71;94806.34;5032233;28;20309;-66
2023/07/30 04:08:45;;;;;;;4.13;3.28;;;;;;;21.76;48.71;94801.75;5022785;28;20273;-66
2023/07/30 04:11:10;;;;;;;4.43;3.60;;;;;;;21.52;49.29;94798.94;5034090;28;20298;-66
2023/07/30 04:13:35;;;;;;;4.88;2.85;;;;;;;21.26;50.12;94801.91;5036015;28;20214;-67
2023/07/30 04:16:01;;;;;;;4.03;3.08;;;;;;;21.28;50.05;94792.63;5036696;28;20221;-66
2023/07/30 04:18:26;;;;;;;4.32;3.40;;;;;;;21.42;49.45;94797.84;5031843;28;20218;-66
2023/07/30 04:20:57;;;;;;;3.70;3.40;;;;;;;21.51;49.13;94799.97;5036768;28;20202;-65
2023/07/30 04:23:22;;;;;;;3.00;2.78;;;;;;;21.61;48.62;94799.44;5031870;28;20186;-65
2023/07/30 04:25:51;;;;;;;5.18;2.97;;;;;;;21.64;48.66;94796.31;5033944;28;20232;-66
2023/07/30 04:28:17;;;;;;;3.78;2.90;;;;;;;21.57;48.74;94796.41;5032724;28;20277;-65
2023/07/30 04:30:42;;;;;;;3.90;2.85;;;;;;;21.53;47.85;94803.25;5049547;28;20218;-65
2023/07/30 04:33:08;;;;;;;3.78;2.78;;;;;;;21.66;47.01;94804.94;5034280;28;20275;-65
2023/07/30 04:35:33;;;;;;;6.45;3.10;;;;;;;21.87;46.87;94802.84;5023991;28;20199;-65
2023/07/30 04:37:59;;;;;;;3.33;3.03;;;;;;;21.67;47.17;94803.91;5034628;28;20261;-64
2023/07/30 04:40:24;;;;;;;4.35;2.88;;;;;;;21.82;46.86;94805.38;5035783;28;20218;-66
2023/07/30 04:42:49;;;;;;;2.63;2.42;;;;;;;21.95;46.96;94807.88;5033850;28;20229;-66
2023/07/30 04:45:15;;;;;;;3.15;2.95;;;;;;;21.96;46.41;94807.63;5035996;28;20812;-65
2023/07/30 04:47:40;;;;;;;3.20;2.55;;;;;;;22.01;46.38;94812.31;5041160;28;20188;-67
2023/07/30 04:50:06;;;;;;;3.00;2.70;;;;;;;22.05;46.21;94804.63;5036697;28;20226;-65
2023/07/30 04:52:31;;;;;;;3.47;2.90;;;;;;;22.12;46.29;94805.34;5034294;28;20248;-66
2023/07/30 04:54:57;;;;;;;4.30;3.28;;;;;;;22.07;45.81;94805.22;5036456;28;20242;-65
2023/07/30 04:57:22;;;;;;;3.38;3.08;;;;;;;22.41;44.98;94809.06;5038820;28;20301;-64
2023/07/30 04:59:48;;;;;;;3.17;2.50;;;;;;;22.10;45.65;94807.44;5035477;28;20226;-65
2023/07/30 05:02:13;;;;;;;3.58;2.30;;;;;;;22.08;46.05;94809.50;5033440;28;20281;-66
2023/07/30 05:04:38;;;;;;;3.60;2.80;;;;;;;22.12;46.13;94810.69;5033591;28;20278;-65
2023/07/30 05:07:04;;;;;;;3.08;2.88;;;;;;;22.19;45.89;94812.28;5032267;28;20219;-66
2023/07/30 05:09:30;;;;;;;3.13;2.70;;;;;;;22.15;45.83;94812.91;5015561;28;20210;-66
2023/07/30 05:11:55;;;;;;;5.05;3.13;;;;;;;22.15;45.73;94812.91;5031115;28;20229;-66
2023/07/30 05:14:21;;;;;;;2.72;2.50;;;;;;;22.16;46.23;94798.47;5035069;28;20185;-66
2023/07/30 05:16:46;;;;;;;2.75;2.55;;;;;;;22.24;45.85;94806.25;5033291;28;20223;-66
2023/07/30 05:19:12;;;;;;;2.80;2.60;;;;;;;22.30;45.70;94802.63;5032594;28;20234;-66
2023/07/30 05:21:37;;;;;;;3.25;2.50;;;;;;;22.38;45.47;94809.53;5032363;28;20214;-67
2023/07/30 05:24:03;;;;;;;3.53;2.92;;;;;;;22.47;45.20;94805.44;5038461;28;20235;-67
2023/07/30 05:26:28;;;;;;;2.63;2.40;;;;;;;22.58;45.00;94809.19;5034874;28;20206;-66
2023/07/30 05:28:53;;;;;;;3.60;2.67;;;;;;;22.60;44.99;94807.91;5030336;28;20305;-65
2023/07/30 05:31:19;;;;;;;3.20;2.90;;;;;;;22.50;45.06;94813.03;5038712;28;20244;-65
2023/07/30 05:33:44;;;;;;;2.80;2.60;;;;;;;22.53;45.24;94804.50;5035709;28;20225;-64
2023/07/30 05:36:10;;;;;;;4.57;3.10;;;;;;;22.52;45.50;94797.53;5034330;28;20304;-65
2023/07/30 05:38:35;;;;;;;3.33;3.03;;;;;;;22.62;44.92;94808.50;5028037;28;20353;-65
2023/07/30 05:41:00;;;;;;;3.25;2.95;;;;;;;22.67;44.69;94803.25;5027412;28;20230;-65
2023/07/30 05:43:26;;;;;;;4.70;2.80;;;;;;;22.79;44.61;94813.97;5018722;28;20229;-66
2023/07/30 05:45:51;;;;;;;4.28;2.80;;;;;;;22.92;44.54;94812.94;5018112;28;20237;-65
2023/07/30 05:48:17;;;;;;;3.00;2.70;;;;;;;22.91;44.82;94816.69;5045897;28;20218;-65
2023/07/30 05:50:42;;;;;;;2.92;2.72;;;;;;;23.03;44.75;94811.34;5032731;28;20186;-66
2023/07/30 05:53:08;;;;;;;3.45;3.15;;;;;;;23.10;45.03;94815.53;5027947;28;20710;-66
2023/07/30 05:55:33;;;;;;;3.17;2.88;;;;;;;23.25;45.15;94812.34;5025486;28;21015;-65
2023/07/30 05:57:59;;;;;;;3.08;2.88;;;;;;;23.31;44.79;94813.31;5028869;28;20309;-65
2023/07/30 06:00:24;;;;;;;3.28;2.97;;;;;;;23.29;44.64;94810.84;5032523;28;20359;-66
2023/07/30 06:02:51;;;;;;;4.25;3.10;;;;;;;23.37;44.07;94819.59;5032965;28;20246;-65
2023/07/30 06:05:16;;;;;;;3.10;2.80;;;;;;;23.42;43.90;94819.69;5033390;28;20198;-65
2023/07/30 06:07:42;;;;;;;2.92;2.70;;;;;;;23.29;44.54;94816.19;5029906;28;20222;-65
2023/07/30 06:10:07;;;;;;;3.10;2.72;;;;;;;23.14;44.95;94817.75;5032724;28;20229;-65
2023/07/30 06:12:33;;;;;;;16.23;4.38;;;;;;;23.17;44.87;94820.75;5030149;28;20222;-68
2023/07/30 06:14:58;;;;;;;4.65;3.03;;;;;;;23.24;44.50;94824.13;5030105;28;20769;-67
2023/07/30 06:17:24;;;;;;;3.60;2.88;;;;;;;23.35;44.00;94819.81;5032394;28;20192;-67
2023/07/30 06:19:49;;;;;;;2.92;2.72;;;;;;;23.49;43.99;94820.34;5030117;28;20308;-64
2023/07/30 06:22:14;;;;;;;3.20;2.90;;;;;;;23.55;43.76;94814.06;5028915;28;20230;-66
2023/07/30 06:24:40;;;;;;;2.85;2.55;;;;;;;23.65;43.73;94824.16;5031169;28;20221;-66
2023/07/30 06:27:05;;;;;;;4.90;3.03;;;;;;;23.74;43.58;94823.59;5031558;28;20241;-66
2023/07/30 06:29:31;;;;;;;3.13;2.85;;;;;;;23.69;43.40;94812.72;5031235;28;20214;-65
2023/07/30 06:31:56;;;;;;;3.78;3.40;;;;;;;23.73;43.26;94813.09;5029922;28;20248;-65
2023/07/30 06:34:22;;;;;;;3.50;3.08;;;;;;;23.81;43.12;94811.91;5030740;28;20288;-65
2023/07/30 06:36:47;;;;;;;6.82;5.82;;;;;;;24.02;42.65;94821.16;5028538;28;20746;-66
2023/07/30 06:39:13;;;;;;;7.18;6.57;;;;;;;23.84;43.14;94814.91;5033722;28;20222;-65
2023/07/30 06:41:38;;;;;;;4.35;3.92;;;;;;;23.94;43.23;94807.06;5030051;28;20281;-65
2023/07/30 06:44:04;;;;;;;3.83;3.35;;;;;;;23.84;43.55;94803.34;5027028;28;20237;-65
2023/07/30 06:46:29;;;;;;;3.47;3.17;;;;;;;23.81;42.79;94810.03;5035123;28;20257;-65
2023/07/30 06:48:54;;;;;;;3.40;3.10;;;;;;;23.93;42.21;94805.44;5018270;28;20222;-67
2023/07/30 06:51:20;;;;;;;3.42;2.83;;;;;;;23.82;42.75;94794.72;5040718;28;20283;-66
2023/07/30 06:53:46;;;;;;;3.78;3.15;;;;;;;23.95;43.41;94797.97;5043871;28;20306;-64
2023/07/30 06:56:11;;;;;;;3.70;2.75;;;;;;;24.04;42.71;94793.00;5031625;28;20179;-65
2023/07/30 06:58:37;;;;;;;5.55;3.00;;;;;;;24.07;42.31;94789.84;5033323;28;20230;-64
2023/07/30 07:01:02;;;;;;;2.95;2.63;;;;;;;24.10;41.56;94783.97;5034673;28;20237;-63
2023/07/30 07:03:28;;;;;;;3.70;2.75;;;;;;;24.05;41.41;94786.56;5032840;28;20300;-63
2023/07/30 07:05:55;;;;;;;4.00;2.72;;;;;;;23.94;41.68;94784.75;5035349;28;20239;-64
2023/07/30 07:08:20;;;;;;;4.00;3.35;;;;;;;24.16;41.60;94776.81;5036828;28;20185;-63
2023/07/30 07:10:46;;;;;;;3.97;3.28;;;;;;;24.29;41.42;94778.38;5032317;28;20222;-63
2023/07/30 07:13:14;;;;;;;3.08;2.78;;;;;;;24.38;41.54;94776.94;5032794;28;20222;-64
2023/07/30 07:15:41;;;;;;;3.17;2.90;;;;;;;24.48;41.25;94777.09;5029830;28;20291;-64
2023/07/30 07:18:06;;;;;;;3.08;2.78;;;;;;;24.56;40.25;94771.31;5018253;28;20253;-65
2023/07/30 07:20:32;;;;;;;3.63;2.83;;;;;;;24.53;39.90;94771.00;5035364;28;20269;-65
2023/07/30 07:22:57;;;;;;;4.00;2.85;;;;;;;24.49;40.60;94768.00;5032475;28;20238;-65
2023/07/30 07:25:23;;;;;;;4.40;2.83;;;;;;;24.69;39.98;94759.44;5032739;28;20304;-66
2023/07/30 07:27:48;;;;;;;6.70;3.47;;;;;;;24.40;40.74;94766.75;5041466;28;20267;-71
2023/07/30 07:30:13;;;;;;;3.00;2.80;;;;;;;24.47;40.18;94756.69;5038780;28;20224;-66
2023/07/30 07:32:39;;;;;;;3.20;2.60;;;;;;;24.63;39.90;94755.03;5036620;28;20174;-65
2023/07/30 07:35:05;;;;;;;164.90;16.50;;;;;;;24.62;40.67;94743.50;5030555;28;20280;-67
2023/07/30 07:37:32;;;;;;;5.03;3.00;;;;;;;24.70;40.30;94752.19;5020989;28;20238;-67
2023/07/30 07:39:57;;;;;;;3.00;2.70;;;;;;;24.78;40.66;94741.84;5038020;28;20218;-67
2023/07/30 07:42:23;;;;;;;2.80;2.60;;;;;;;24.88;40.33;94746.53;5025943;28;20275;-67
2023/07/30 07:44:48;;;;;;;4.40;3.03;;;;;;;24.98;40.67;94743.19;5032956;28;20221;-65
2023/07/30 07:47:13;;;;;;;4.65;3.15;;;;;;;25.04;40.10;94748.34;5032235;28;20202;-66
2023/07/30 07:49:39;;;;;;;8.13;3.88;;;;;;;25.07;40.10;94747.06;5032799;28;20225;-66
2023/07/30 07:52:05;;;;;;;17.23;4.53;;;;;;;25.13;40.47;94740.69;5030374;28;20224;-66
2023/07/30 07:54:30;;;;;;;33.45;6.28;;;;;;;25.29;39.64;94741.75;5016372;28;20222;-67
2023/07/30 07:56:55;;;;;;;5.63;3.22;;;;;;;25.26;39.05;94743.03;5031027;28;20281;-67
2023/07/30 07:59:21;;;;;;;8.82;3.90;;;;;;;25.25;40.05;94732.53;5033697;28;20317;-68
2023/07/30 08:01:46;;;;;;;6.95;3.40;;;;;;;25.42;39.34;94735.97;5039006;28;20656;-66
2023/07/30 08:04:12;;;;;;;5.25;3.40;;;;;;;25.47;37.84;94730.66;5032063;28;20257;-68
2023/07/30 08:06:37;;;;;;;6.45;2.83;;;;;;;25.52;37.80;94736.06;5035443;28;20631;-65
2023/07/30 08:09:03;;;;;;;3.58;3.28;;;;;;;25.42;38.59;94725.22;5036702;28;20359;-67
2023/07/30 08:11:28;;;;;;;4.20;3.53;;;;;;;25.48;38.18;94718.00;5033059;28;20278;-66
2023/07/30 08:13:53;;;;;;;4.18;3.40;;;;;;;25.69;38.68;94722.53;5033634;28;20225;-66
2023/07/30 08:16:19;;;;;;;4.85;3.00;;;;;;;25.66;37.73;94720.34;5031422;28;20225;-65
2023/07/30 08:18:44;;;;;;;4.47;3.50;;;;;;;25.63;38.64;94725.41;5038054;28;20287;-65
2023/07/30 08:21:10;;;;;;;4.30;3.22;;;;;;;25.73;37.53;94725.53;5034544;28;20222;-65
2023/07/30 08:23:35;;;;;;;3.85;3.45;;;;;;;25.85;37.02;94736.16;5033302;28;20339;-66
2023/07/30 08:26:01;;;;;;;3.65;3.15;;;;;;;25.86;37.07;94713.56;5027339;28;20223;-65
2023/07/30 08:28:26;;;;;;;3.83;3.50;;;;;;;25.76;37.11;94722.31;5030980;28;20222;-64
2023/07/30 08:30:51;;;;;;;6.38;3.30;;;;;;;25.98;37.89;94719.59;5030109;28;20225;-65
2023/07/30 08:33:17;;;;;;;3.50;2.95;;;;;;;25.97;36.32;94712.59;5037013;28;20324;-65
2023/07/30 08:35:42;;;;;;;5.57;4.05;;;;;;;25.93;36.28;94715.00;5037353;28;20543;-65
2023/07/30 08:38:08;;;;;;;3.22;2.90;;;;;;;25.89;37.23;94711.19;5029177;28;20219;-64
2023/07/30 08:40:33;;;;;;;5.97;3.38;;;;;;;26.02;38.61;94706.44;5032638;28;20592;-64
2023/07/30 08:42:59;;;;;;;6.28;3.42;;;;;;;26.16;37.79;94713.84;5029123;28;20233;-64
2023/07/30 08:45:25;;;;;;;7.38;3.70;;;;;;;26.26;38.42;94707.72;5024292;28;20236;-65
2023/07/30 08:47:50;;;;;;;6.15;3.47;;;;;;;26.36;38.08;94702.44;5032647;28;20182;-64
2023/07/30 08:50:16;;;;;;;4.75;3.13;;;;;;;26.37;38.21;94693.25;5038193;28;20193;-64
2023/07/30 08:52:42;;;;;;;5.30;3.45;;;;;;;26.41;37.09;94696.28;5034061;28;20217;-64
2023/07/30 08:55:10;;;;;;;5.78;3.47;;;;;;;26.48;37.65;94699.53;5031870;28;20216;-65
2023/07/30 08:57:38;;;;;;;3.30;3.00;;;;;;;26.55;35.84;94693.97;5041726;28;20214;-65
2023/07/30 09:00:08;;;;;;;3.45;3.00;;;;;;;26.66;35.50;94690.25;5036655;28;20233;-66
2023/07/30 09:02:38;;;;;;;3.33;2.70;;;;;;;26.95;34.37;94689.88;5016045;28;20232;-66
2023/07/30 09:05:04;;;;;;;3.17;2.58;;;;;;;26.78;33.87;94685.47;5042646;28;20297;-65
2023/07/30 09:07:30;;;;;;;5.35;3.63;;;;;;;26.75;35.05;94688.69;5036106;28;20217;-65
2023/07/30 09:09:55;;;;;;;3.75;3.03;;;;;;;26.73;34.65;94680.06;5034813;28;20213;-65
2023/07/30 09:12:26;;;;;;;3.45;2.90;;;;;;;26.79;35.95;94692.50;5043429;28;20224;-66
2023/07/30 09:14:52;;;;;;;3.58;2.90;;;;;;;26.76;35.09;94684.13;5034078;28;20657;-66
2023/07/30 09:17:18;;;;;;;3.47;3.17;;;;;;;26.95;34.56;94677.19;5024229;28;20193;-65
2023/07/30 09:19:44;;;;;;;3.95;3.35;;;;;;;27.04;33.83;94675.63;5028556;28;20215;-65
2023/07/30 09:22:09;;;;;;;3.05;2.78;;;;;;;27.04;34.09;94682.91;5031973;28;20332;-65
2023/07/30 09:24:35;;;;;;;3.17;2.88;;;;;;;26.89;30.53;94672.88;5034779;28;20244;-64
2023/07/30 09:27:02;;;;;;;3.60;2.67;;;;;;;26.78;32.17;94679.25;5033694;28;20186;-64
2023/07/30 09:29:28;;;;;;;3.22;2.80;;;;;;;26.88;32.27;94675.81;5015434;28;20582;-64
2023/07/30 09:31:55;;;;;;;3.70;2.67;;;;;;;27.04;32.47;94672.09;5025434;28;20712;-65
2023/07/30 09:34:22;;;;;;;3.33;2.85;;;;;;;27.33;31.64;94669.00;5030639;28;20240;-64
2023/07/30 09:36:50;;;;;;;2.55;2.35;;;;;;;27.31;29.41;94673.88;5026955;28;20307;-65
2023/07/30 09:39:26;;;;;;;4.28;2.88;;;;;;;27.80;29.32;94668.91;5016628;28;20218;-65
2023/07/30 09:42:00;;;;;;;3.22;2.70;;;;;;;27.62;28.70;94659.38;5031694;28;20341;-65
2023/07/30 09:44:25;;;;;;;3.17;2.63;;;;;;;27.65;29.10;94663.44;5032928;28;20297;-63
2023/07/30 09:46:51;;;;;;;3.13;2.83;;;;;;;27.68;29.54;94647.50;5032859;28;20419;-65
2023/07/30 09:49:17;;;;;;;5.97;3.05;;;;;;;27.77;30.56;94655.06;5030154;28;20890;-65
2023/07/30 09:51:43;;;;;;;3.25;2.47;;;;;;;27.96;30.26;94650.81;5021594;28;20294;-65
2023/07/30 09:54:11;;;;;;;3.40;3.10;;;;;;;28.07;30.64;94646.22;5035327;28;20316;-64
2023/07/30 09:56:38;;;;;;;3.17;2.58;;;;;;;28.22;29.49;94638.06;5034864;28;20570;-65
2023/07/30 09:59:05;;;;;;;9.35;3.17;;;;;;;28.28;30.10;94634.31;5041039;28;20226;-65
2023/07/30 10:01:32;;;;;;;5.18;2.90;;;;;;;28.40;29.31;94638.63;5031717;28;20272;-65
2023/07/30 10:03:58;;;;;;;3.00;2.80;;;;;;;28.62;29.91;94643.75;5037349;28;20225;-65
2023/07/30 10:06:31;;;;;;;6.95;2.95;;;;;;;28.71;29.61;94632.09;5032210;28;20232;-65
2023/07/30 10:08:59;;;;;;;7.93;4.03;;;;;;;28.84;29.47;94633.38;5035031;28;20182;-65
2023/07/30 10:11:24;;;;;;;3.55;3.05;;;;;;;28.96;27.25;94638.50;5031178;28;20174;-64
2023/07/30 10:13:51;;;;;;;3.17;2.75;;;;;;;28.78;28.80;94626.38;5031017;28;20218;-64
2023/07/30 10:16:17;;;;;;;3.38;3.03;;;;;;;28.92;28.54;94626.59;5042788;28;20237;-64
2023/07/30 10:18:43;;;;;;;3.08;2.72;;;;;;;29.00;27.81;94621.44;5034209;28;20210;-66
2023/07/30 10:21:10;;;;;;;6.30;3.53;;;;;;;29.11;29.15;94618.69;5029418;28;20732;-65
2023/07/30 10:23:46;;;;;;;3.63;3.15;;;;;;;29.21;27.72;94614.03;5037883;28;20193;-65
2023/07/30 10:26:12;;;;;;;3.33;3.03;;;;;;;29.31;28.39;94613.19;5032922;28;20302;-65
2023/07/30 10:28:39;;;;;;;3.47;3.15;;;;;;;29.33;27.95;94608.31;5032546;28;20249;-65
2023/07/30 10:31:13;;;;;;;2.60;2.40;;;;;;;29.45;27.98;94600.63;5033955;28;20232;-65
2023/07/30 10:33:55;;;;;;;3.40;3.00;;;;;;;29.72;26.58;94602.13;5032606;28;20309;-65
2023/07/30 10:36:31;;;;;;;4.10;3.10;;;;;;;29.78;27.81;94602.88;5031438;28;20222;-65
2023/07/30 10:38:56;;;;;;;3.00;2.80;;;;;;;30.03;27.48;94599.19;5022447;28;20181;-66
2023/07/30 10:41:22;;;;;;;3.28;2.97;;;;;;;30.26;26.91;94597.63;5030815;28;20199;-65
2023/07/30 10:43:49;;;;;;;3.67;3.00;;;;;;;30.37;27.39;94595.63;5030554;28;20229;-65
2023/07/30 10:46:17;;;;;;;3.05;2.72;;;;;;;30.12;25.21;94589.31;5033006;28;20229;-65
2023/07/30 10:48:44;;;;;;;4.15;3.30;;;;;;;30.14;25.49;94586.34;5028948;28;20221;-65
2023/07/30 10:51:14;;;;;;;3.72;3.38;;;;;;;30.17;26.56;94578.44;5030650;28;20222;-64
2023/07/30 10:53:43;;;;;;;3.35;2.75;;;;;;;30.09;25.41;94574.44;5031444;28;20246;-68
2023/07/30 10:56:09;;;;;;;3.10;2.90;;;;;;;30.05;25.87;94575.31;5051542;28;20264;-66
2023/07/30 10:58:36;;;;;;;3.13;2.80;;;;;;;29.94;25.46;94563.75;5034285;28;20233;-65
2023/07/30 11:01:03;;;;;;;3.42;3.13;;;;;;;30.26;25.96;94567.81;5030723;28;20218;-65
2023/07/30 11:03:30;;;;;;;3.55;3.25;;;;;;;30.43;25.65;94562.75;5031536;28;20213;-64
2023/07/30 11:05:56;;;;;;;4.00;3.63;;;;;;;30.64;25.71;94560.63;5029868;28;20217;-65
2023/07/30 11:08:38;;;;;;;3.25;3.05;;;;;;;30.72;26.28;94562.69;5036003;28;20243;-66
2023/07/30 11:11:05;;;;;;;3.65;3.35;;;;;;;30.59;25.76;94549.84;5028733;28;20305;-64
2023/07/30 11:13:39;;;;;;;4.15;2.75;;;;;;;30.65;25.19;94559.53;5024974;28;20233;-65
2023/07/30 11:16:05;;;;;;;3.72;3.42;;;;;;;30.75;26.37;94548.53;5021067;28;20249;-65
2023/07/30 11:18:33;;;;;;;3.13;2.83;;;;;;;31.00;25.22;94552.06;5015029;28;20377;-64
2023/07/30 11:21:03;;;;;;;3.80;3.50;;;;;;;31.05;25.45;94540.34;5032705;28;20370;-65
2023/07/30 11:23:28;;;;;;;3.33;2.95;;;;;;;31.12;25.06;94528.03;5031121;28;20182;-64
2023/07/30 11:25:54;;;;;;;3.58;3.28;;;;;;;31.36;25.36;94532.56;5031841;28;20229;-64
2023/07/30 11:28:31;;;;;;;3.20;2.90;;;;;;;31.43;25.32;94524.88;5032382;28;20784;-64